This is the latest recevied weather packets stored in our database for station/object KG5CK-1. If no packets are shown the sender has not sent any weather packets the latest 10 day(s).
| Time | Temp. | Humidity | Pressure | Rain* | Wind** | Luminosity | Snow |
|---|---|---|---|---|---|---|---|
| 1777339623 | 23.33° C | 99% | 1006 hPa | 0 mm | 0.89 m/s, 60° | - | - |
| 1777339563 | 23.33° C | 99% | 1006 hPa | 0 mm | 0.89 m/s, 60° | - | - |
| 1777339503 | 23.33° C | 98% | 1005.4 hPa | 7.62 mm | 0.45 m/s, 33° | - | - |
| 1777339443 | 23.33° C | 98% | 1005.4 hPa | 7.62 mm | 0.45 m/s, 33° | - | - |
| 1777339383 | 23.33° C | 98% | 1005.4 hPa | 7.62 mm | 0.45 m/s, 33° | - | - |
| 1777339323 | 23.33° C | 98% | 1005.4 hPa | 7.62 mm | 0.45 m/s, 33° | - | - |
| 1777339263 | 23.33° C | 98% | 1005.4 hPa | 7.62 mm | 0.45 m/s, 33° | - | - |
| 1777339203 | 23.33° C | 98% | 1005 hPa | 8.89 mm | 0.89 m/s, 79° | - | - |
| 1777339143 | 23.33° C | 98% | 1005 hPa | 8.89 mm | 0.89 m/s, 79° | - | - |
| 1777339083 | 23.33° C | 98% | 1005 hPa | 8.89 mm | 0.89 m/s, 79° | - | - |
| 1777339023 | 23.33° C | 98% | 1005 hPa | 8.89 mm | 0.89 m/s, 79° | - | - |
| 1777338963 | 23.33° C | 98% | 1005 hPa | 8.89 mm | 0.89 m/s, 79° | - | - |
| 1777338903 | 24.44° C | 95% | 1004.2 hPa | 1.02 mm | 2.68 m/s, 205° | - | - |
| 1777338843 | 24.44° C | 95% | 1004.2 hPa | 1.02 mm | 2.68 m/s, 205° | - | - |
| 1777338783 | 24.44° C | 95% | 1004.2 hPa | 1.02 mm | 2.68 m/s, 205° | - | - |
| 1777338723 | 24.44° C | 95% | 1004.2 hPa | 1.02 mm | 2.68 m/s, 205° | - | - |
| 1777338663 | 24.44° C | 95% | 1004.2 hPa | 1.02 mm | 2.68 m/s, 205° | - | - |
| 1777338603 | 25° C | 97% | 1004.7 hPa | 0 mm | 1.79 m/s, 125° | - | - |
| 1777338543 | 25° C | 97% | 1004.7 hPa | 0 mm | 1.79 m/s, 125° | - | - |
| 1777338483 | 25° C | 97% | 1004.7 hPa | 0 mm | 1.79 m/s, 125° | - | - |
| 1777338423 | 25° C | 97% | 1004.7 hPa | 0 mm | 1.79 m/s, 125° | - | - |
| 1777338363 | 25° C | 97% | 1004.7 hPa | 0 mm | 1.79 m/s, 125° | - | - |
| 1777338303 | 24.44° C | 98% | 1004.5 hPa | 0 mm | 0.89 m/s, 115° | - | - |
| 1777338243 | 24.44° C | 98% | 1004.5 hPa | 0 mm | 0.89 m/s, 115° | - | - |
| 1777338183 | 24.44° C | 98% | 1004.5 hPa | 0 mm | 0.89 m/s, 115° | - | - |
* Rain latest hour (hover to see other rain measurements)
** Current wind speed in m/s (hover to see current wind gust speed)